首页
METAR-TAF:

METAR-TAF

机场 :

Sierra Blanca Regional Airport

Ruidoso, 新墨西哥州, 美国

纬度: 33-28N, 经度: 105-32W, 海拔: 2076米

当前天气观测

该预报发布于28分钟前的11:15 UTC
风速6节,风向西
温度 -1°C
湿度 54%
气压 1027 hPa
能見度: 16.1公里
天空无云

METAR: KSRR 111115Z AUTO 26006KT 10SM CLR M01/M09 A3032 RMK AO2

时间: 04:43 (11:43 UTC)


TAF: 丢失

超过4000个机场的气象观测和天气预报(METAR&TAF报告)。

可查询的气象台以黄色和红色小点在地图上表示。

将鼠标移到小点上方,可查看气象台名称。

然后点击查看天气观测和预报。

如需切换地图:点击带黑十字的绿色按钮放大地图;点击带横线的绿色按钮缩小地图;或者点击绿色箭头查看邻近地区的地图。


METAR-TAF: